createdAt,value
2018-09-02T00:00:49.798Z,4.57
2018-09-02T00:03:19.143Z,9.23
2018-09-02T00:05:48.416Z,4.87
2018-09-02T00:08:17.752Z,7.03
2018-09-02T00:10:46.829Z,7.73
2018-09-02T00:13:16.110Z,6.17
2018-09-02T00:15:45.468Z,7.27
2018-09-02T00:18:15.204Z,5.07
2018-09-02T00:20:44.267Z,8.70
2018-09-02T00:23:14.111Z,6.33
2018-09-02T00:25:44.611Z,6.73
2018-09-02T00:28:13.956Z,8.37
2018-09-02T00:30:43.335Z,12.23
2018-09-02T00:33:12.525Z,8.90
2018-09-02T00:35:41.838Z,6.67
2018-09-02T00:38:11.191Z,8.23
2018-09-02T00:40:40.621Z,6.93
2018-09-02T00:43:11.049Z,4.83
2018-09-02T00:45:40.373Z,6.57
2018-09-02T00:48:09.890Z,8.17
2018-09-02T00:50:39.222Z,7.70
2018-09-02T00:53:08.578Z,7.90
2018-09-02T00:55:37.961Z,8.20
2018-09-02T00:58:07.405Z,6.07
2018-09-02T01:00:36.819Z,5.70
2018-09-02T01:03:06.187Z,7.13
2018-09-02T01:05:35.632Z,5.87
2018-09-02T01:08:04.989Z,5.67
2018-09-02T01:10:34.332Z,7.37
2018-09-02T01:13:03.623Z,7.20
2018-09-02T01:15:32.910Z,6.83
2018-09-02T01:18:02.268Z,8.27
2018-09-02T01:20:31.723Z,5.03
2018-09-02T01:23:01.079Z,6.07
2018-09-02T01:25:30.399Z,10.97
2018-09-02T01:27:59.705Z,5.43
2018-09-02T01:30:29.005Z,6.73
2018-09-02T01:32:58.093Z,7.30
2018-09-02T01:35:34.409Z,6.83
2018-09-02T01:38:05.191Z,5.53
2018-09-02T01:40:35.427Z,6.13
2018-09-02T01:43:05.304Z,7.93
2018-09-02T01:45:34.832Z,7.33
2018-09-02T01:48:04.335Z,5.07
2018-09-02T01:50:33.602Z,4.63
2018-09-02T01:53:02.913Z,7.50
2018-09-02T01:55:32.245Z,7.10
2018-09-02T01:58:01.593Z,6.20
2018-09-02T02:00:30.945Z,7.03
2018-09-02T02:03:00.186Z,10.17
2018-09-02T02:05:29.564Z,5.20
2018-09-02T02:07:58.836Z,7.50
2018-09-02T02:10:28.346Z,8.17
2018-09-02T02:12:58.642Z,7.40
2018-09-02T02:15:27.875Z,5.77
2018-09-02T02:17:57.160Z,6.33
2018-09-02T02:20:27.412Z,6.70
2018-09-02T02:22:56.700Z,7.93
2018-09-02T02:25:26.044Z,7.30
2018-09-02T02:27:55.479Z,5.70
2018-09-02T02:30:24.775Z,6.23
2018-09-02T02:32:53.866Z,5.00
2018-09-02T02:35:23.153Z,5.63
2018-09-02T02:37:52.206Z,6.77
2018-09-02T02:40:21.523Z,4.77
2018-09-02T02:42:50.782Z,5.57
2018-09-02T02:45:20.155Z,6.60
2018-09-02T02:47:49.521Z,7.10
2018-09-02T02:50:18.500Z,6.47
2018-09-02T02:52:52.897Z,5.73
2018-09-02T02:55:22.367Z,7.23
2018-09-02T02:57:51.677Z,8.53
2018-09-02T03:00:20.963Z,6.37
2018-09-02T03:02:50.309Z,8.97
2018-09-02T03:05:19.625Z,7.97
2018-09-02T03:07:49.062Z,6.23
2018-09-02T03:10:18.570Z,4.43
2018-09-02T03:12:47.888Z,6.20
2018-09-02T03:15:17.710Z,5.97
2018-09-02T03:17:46.952Z,8.33
2018-09-02T03:20:16.287Z,5.50
2018-09-02T03:22:45.627Z,5.90
2018-09-02T03:25:14.985Z,6.97
2018-09-02T03:27:44.042Z,6.63
2018-09-02T03:30:14.057Z,7.40
2018-09-02T03:32:43.431Z,6.87
2018-09-02T03:35:12.767Z,5.90
2018-09-02T03:37:42.020Z,6.13
2018-09-02T03:40:11.734Z,8.30
2018-09-02T03:42:41.075Z,6.97
2018-09-02T03:45:10.442Z,5.20
2018-09-02T03:47:39.771Z,4.43
2018-09-02T03:50:09.108Z,5.53
2018-09-02T03:52:38.712Z,4.43
2018-09-02T03:55:08.020Z,6.00
2018-09-02T03:57:37.310Z,6.47
2018-09-02T04:00:06.984Z,7.57
2018-09-02T04:02:36.321Z,6.90
2018-09-02T04:05:05.960Z,6.67
2018-09-02T04:07:35.114Z,8.37
2018-09-02T04:10:04.290Z,3.63
2018-09-02T04:12:33.423Z,6.40
2018-09-02T04:15:02.602Z,8.87
2018-09-02T04:17:31.827Z,7.23
2018-09-02T04:20:01.094Z,5.23
2018-09-02T04:22:30.386Z,5.63
2018-09-02T04:24:59.746Z,5.37
2018-09-02T04:27:28.980Z,4.53
2018-09-02T04:29:58.322Z,5.60
2018-09-02T04:32:27.646Z,5.20
2018-09-02T04:34:56.985Z,6.47
2018-09-02T04:37:26.287Z,5.87
2018-09-02T04:39:55.660Z,4.87
2018-09-02T04:42:24.755Z,7.50
2018-09-02T04:44:54.026Z,6.37
2018-09-02T04:47:23.393Z,7.17
2018-09-02T04:49:52.518Z,7.00
2018-09-02T04:52:21.790Z,8.43
2018-09-02T04:54:50.720Z,6.47
2018-09-02T04:57:20.028Z,4.63
2018-09-02T04:59:49.130Z,7.03
2018-09-02T05:02:18.395Z,5.57
2018-09-02T05:04:47.710Z,6.13
2018-09-02T05:07:17.065Z,6.23
2018-09-02T05:09:46.393Z,3.87
2018-09-02T05:12:15.741Z,7.00
2018-09-02T05:14:45.129Z,7.03
2018-09-02T05:17:14.479Z,5.47
2018-09-02T05:19:43.843Z,6.53
2018-09-02T05:22:13.263Z,6.13
2018-09-02T05:24:42.746Z,4.83
2018-09-02T05:27:12.137Z,4.53
2018-09-02T05:29:41.206Z,4.97
2018-09-02T05:32:10.504Z,5.87
2018-09-02T05:34:39.840Z,7.30
2018-09-02T05:37:09.122Z,4.23
2018-09-02T05:39:38.554Z,5.03
2018-09-02T05:42:07.878Z,5.13
2018-09-02T05:44:37.118Z,7.77
2018-09-02T05:47:07.772Z,7.23
2018-09-02T05:49:36.747Z,7.43
2018-09-02T05:52:06.101Z,5.23
2018-09-02T05:54:35.534Z,6.77
2018-09-02T05:57:04.896Z,5.80
2018-09-02T05:59:34.443Z,4.13
2018-09-02T06:02:04.178Z,6.13
2018-09-02T06:04:33.534Z,5.30
2018-09-02T06:07:02.877Z,5.87
2018-09-02T06:09:32.820Z,7.13
2018-09-02T06:12:03.138Z,5.57
2018-09-02T06:14:32.201Z,9.97
2018-09-02T06:17:01.474Z,5.83
2018-09-02T06:19:31.218Z,5.27
2018-09-02T06:22:00.456Z,4.83
2018-09-02T06:24:29.796Z,6.83
2018-09-02T06:26:59.900Z,5.03
2018-09-02T06:29:29.216Z,6.93
2018-09-02T06:31:58.509Z,6.50
2018-09-02T06:34:27.858Z,5.30
2018-09-02T06:36:57.199Z,5.57
2018-09-02T06:39:27.298Z,6.57
2018-09-02T06:41:56.666Z,7.23
2018-09-02T06:44:26.004Z,4.73
2018-09-02T06:46:55.256Z,6.07
2018-09-02T06:49:24.275Z,6.40
2018-09-02T06:51:53.567Z,7.17
2018-09-02T06:54:27.766Z,4.67
2018-09-02T06:56:57.196Z,7.30
2018-09-02T06:59:26.560Z,4.37
2018-09-02T07:01:55.824Z,7.37
2018-09-02T07:04:24.915Z,5.60
2018-09-02T07:06:54.311Z,5.90
2018-09-02T07:09:23.379Z,7.23
2018-09-02T07:11:52.845Z,4.43
2018-09-02T07:14:22.250Z,5.70
2018-09-02T07:16:51.657Z,7.27
2018-09-02T07:19:21.162Z,6.37
2018-09-02T07:21:50.548Z,5.70
2018-09-02T07:24:20.629Z,4.73
2018-09-02T07:26:49.728Z,5.20
2018-09-02T07:29:19.062Z,5.13
2018-09-02T07:31:48.295Z,4.80
2018-09-02T07:34:17.347Z,5.00
2018-09-02T07:36:46.320Z,7.37
2018-09-02T07:39:15.676Z,5.73
2018-09-02T07:41:44.884Z,6.00
2018-09-02T07:44:14.298Z,6.47
2018-09-02T07:46:43.611Z,6.87
2018-09-02T07:49:12.693Z,6.30
2018-09-02T07:51:42.055Z,7.00
2018-09-02T07:54:11.411Z,7.47
2018-09-02T07:56:40.756Z,7.63
2018-09-02T07:59:10.163Z,8.53
2018-09-02T08:01:39.195Z,5.77
2018-09-02T08:04:08.573Z,5.50
2018-09-02T08:06:37.941Z,5.97
2018-09-02T08:09:08.715Z,5.50
2018-09-02T08:11:37.959Z,5.50
2018-09-02T08:14:07.232Z,6.83
2018-09-02T08:16:37.119Z,8.43
2018-09-02T08:19:05.958Z,7.00
2018-09-02T08:21:35.237Z,6.10
2018-09-02T08:24:04.521Z,8.20
2018-09-02T08:26:33.782Z,7.57
2018-09-02T08:29:03.040Z,7.50
2018-09-02T08:31:32.079Z,7.43
2018-09-02T08:34:01.171Z,7.43
2018-09-02T08:36:30.566Z,8.80
2018-09-02T08:38:59.956Z,8.13
2018-09-02T08:41:29.244Z,9.13
2018-09-02T08:43:58.497Z,8.53
2018-09-02T08:46:27.568Z,7.53
2018-09-02T08:48:56.891Z,10.17
2018-09-02T08:51:26.166Z,8.00
2018-09-02T08:53:55.194Z,7.53
2018-09-02T08:56:24.664Z,8.03
2018-09-02T08:58:53.988Z,7.93
2018-09-02T09:01:23.443Z,9.23
2018-09-02T09:03:52.773Z,6.77
2018-09-02T09:06:22.204Z,9.43
2018-09-02T09:08:51.511Z,8.33
2018-09-02T09:11:20.678Z,9.50
2018-09-02T09:13:49.681Z,8.00
2018-09-02T09:16:18.757Z,7.47
2018-09-02T09:18:48.041Z,8.03
2018-09-02T09:21:17.367Z,9.67
2018-09-02T09:23:46.697Z,11.17
2018-09-02T09:26:15.824Z,9.20
2018-09-02T09:28:45.274Z,7.93
2018-09-02T09:31:14.685Z,11.00
2018-09-02T09:33:44.042Z,8.63
2018-09-02T09:36:14.028Z,8.27
2018-09-02T09:38:43.285Z,9.43
2018-09-02T09:41:12.642Z,7.87
2018-09-02T09:43:41.917Z,9.23
2018-09-02T09:46:11.054Z,10.43
2018-09-02T09:48:40.378Z,8.63
2018-09-02T09:51:09.764Z,8.73
2018-09-02T09:53:39.076Z,10.03
2018-09-02T09:56:08.470Z,9.30
2018-09-02T09:58:37.571Z,7.70
2018-09-02T10:01:07.302Z,8.70
2018-09-02T10:03:36.335Z,7.33
2018-09-02T10:06:05.807Z,7.67
2018-09-02T10:08:35.060Z,8.17
2018-09-02T10:11:04.076Z,8.30
2018-09-02T10:13:33.448Z,8.20
2018-09-02T10:16:02.850Z,8.30
2018-09-02T10:18:32.153Z,9.07
2018-09-02T10:21:01.522Z,7.70
2018-09-02T10:23:30.874Z,11.67
2018-09-02T10:26:00.208Z,13.77
2018-09-02T10:28:29.623Z,10.60
2018-09-02T10:30:58.660Z,9.73
2018-09-02T10:33:28.099Z,14.47
2018-09-02T10:35:57.435Z,11.13
2018-09-02T10:38:26.550Z,12.07
2018-09-02T10:40:55.623Z,9.33
2018-09-02T10:43:24.926Z,7.50
2018-09-02T10:45:54.201Z,9.83
2018-09-02T10:48:23.486Z,10.00
2018-09-02T10:50:52.961Z,8.43
2018-09-02T10:53:22.012Z,12.10
2018-09-02T10:55:51.364Z,12.00
2018-09-02T10:58:20.510Z,10.43
2018-09-02T11:00:49.535Z,14.80
2018-09-02T11:03:18.817Z,9.50
2018-09-02T11:05:48.138Z,16.37
2018-09-02T11:08:17.235Z,17.40
2018-09-02T11:10:46.604Z,16.67
2018-09-02T11:13:16.120Z,12.20
2018-09-02T11:15:45.624Z,10.20
2018-09-02T11:18:15.044Z,10.03
2018-09-02T11:20:44.427Z,13.57
2018-09-02T11:23:13.913Z,14.87
2018-09-02T11:25:43.299Z,10.57
2018-09-02T11:28:13.149Z,13.13
2018-09-02T11:30:42.424Z,11.27
2018-09-02T11:33:11.484Z,12.80
2018-09-02T11:35:40.513Z,16.60
2018-09-02T11:38:09.520Z,15.37
2018-09-02T11:40:38.544Z,10.90
2018-09-02T11:43:07.887Z,8.43
2018-09-02T11:45:37.077Z,7.57
2018-09-02T11:48:06.409Z,10.07
2018-09-02T11:50:35.479Z,9.47
2018-09-02T11:53:04.891Z,12.03
2018-09-02T11:55:34.213Z,9.33
2018-09-02T11:58:03.473Z,9.07
2018-09-02T12:00:32.503Z,9.37
2018-09-02T12:03:01.806Z,10.03
2018-09-02T12:05:31.199Z,11.00
2018-09-02T12:08:01.245Z,14.07
2018-09-02T12:10:30.636Z,11.47
2018-09-02T12:13:00.389Z,9.10
2018-09-02T12:15:29.489Z,8.57
2018-09-02T12:17:58.503Z,10.93
2018-09-02T12:20:27.518Z,11.03
2018-09-02T12:22:56.827Z,10.07
2018-09-02T12:25:26.147Z,10.93
2018-09-02T12:27:55.472Z,9.03
2018-09-02T12:30:24.742Z,9.50
2018-09-02T12:32:54.065Z,9.30
2018-09-02T12:35:23.381Z,9.40
2018-09-02T12:37:52.690Z,11.87
2018-09-02T12:40:22.020Z,10.50
2018-09-02T12:42:51.387Z,11.50
2018-09-02T12:45:20.714Z,11.87
2018-09-02T12:47:50.141Z,12.07
2018-09-02T12:50:19.364Z,11.00
2018-09-02T12:52:48.647Z,10.87
2018-09-02T12:55:18.183Z,10.33
2018-09-02T12:57:47.448Z,11.23
2018-09-02T13:00:16.555Z,8.63
2018-09-02T13:02:45.657Z,12.80
2018-09-02T13:05:21.676Z,10.40
2018-09-02T13:07:50.700Z,11.23
2018-09-02T13:10:20.237Z,11.23
2018-09-02T13:12:49.663Z,11.97
2018-09-02T13:15:18.895Z,10.63
2018-09-02T13:17:47.952Z,11.37
2018-09-02T13:20:17.249Z,14.37
2018-09-02T13:22:46.473Z,10.33
2018-09-02T13:25:15.771Z,10.77
2018-09-02T13:27:44.834Z,12.23
2018-09-02T13:30:14.247Z,13.23
2018-09-02T13:32:43.593Z,12.90
2018-09-02T13:35:13.092Z,11.83
2018-09-02T13:37:42.541Z,10.47
2018-09-02T13:40:12.172Z,14.67
2018-09-02T13:42:41.492Z,11.87
2018-09-02T13:45:10.859Z,11.97
2018-09-02T13:47:40.226Z,12.53
2018-09-02T13:50:09.656Z,12.63
2018-09-02T13:52:38.955Z,14.00
2018-09-02T13:55:08.244Z,14.60
2018-09-02T13:57:47.682Z,11.73
2018-09-02T14:00:17.608Z,12.13
2018-09-02T14:02:46.737Z,13.90
2018-09-02T14:05:16.113Z,12.53
2018-09-02T14:07:45.223Z,11.33
2018-09-02T14:10:14.210Z,13.87
2018-09-02T14:12:44.096Z,9.70
2018-09-02T14:15:14.426Z,13.70
2018-09-02T14:17:44.302Z,14.97
2018-09-02T14:20:13.642Z,10.63
2018-09-02T14:22:43.002Z,13.07
2018-09-02T14:25:12.459Z,13.27
2018-09-02T14:27:41.886Z,12.57
2018-09-02T14:30:11.362Z,11.43
2018-09-02T14:32:40.675Z,12.80
2018-09-02T14:35:10.077Z,13.70
2018-09-02T14:37:39.488Z,12.77
2018-09-02T14:40:08.904Z,12.43
2018-09-02T14:42:38.232Z,12.10
2018-09-02T14:45:07.674Z,11.50
2018-09-02T14:47:37.017Z,14.00
2018-09-02T14:50:06.375Z,15.33
2018-09-02T14:52:35.677Z,12.83
2018-09-02T14:55:04.873Z,14.43
2018-09-02T14:57:34.180Z,13.10
2018-09-02T15:00:03.487Z,12.53
2018-09-02T15:02:32.864Z,16.90
2018-09-02T15:05:02.388Z,13.80
2018-09-02T15:07:31.825Z,15.33
2018-09-02T15:10:01.182Z,17.00
2018-09-02T15:12:30.258Z,18.00
2018-09-02T15:14:59.632Z,17.77
2018-09-02T15:17:28.860Z,15.90
2018-09-02T15:19:58.076Z,13.07
2018-09-02T15:22:27.092Z,15.60
2018-09-02T15:24:56.443Z,15.23
2018-09-02T15:27:25.823Z,15.97
2018-09-02T15:29:55.192Z,16.90
2018-09-02T15:32:24.567Z,15.93
2018-09-02T15:34:53.874Z,15.70
2018-09-02T15:37:23.156Z,20.47
2018-09-02T15:39:54.847Z,18.73
2018-09-02T15:42:24.211Z,23.60
2018-09-02T15:44:54.372Z,18.83
2018-09-02T15:47:23.768Z,20.03
2018-09-02T15:49:52.861Z,19.40
2018-09-02T15:52:22.076Z,20.73
2018-09-02T15:54:51.509Z,21.10
2018-09-02T15:57:20.877Z,17.80
2018-09-02T15:59:50.314Z,18.70
2018-09-02T16:02:19.641Z,21.40
2018-09-02T16:04:48.703Z,25.70
2018-09-02T16:07:17.833Z,19.67
2018-09-02T16:09:47.186Z,21.83
2018-09-02T16:12:16.421Z,17.70
2018-09-02T16:14:45.667Z,18.83
2018-09-02T16:17:14.858Z,23.03
2018-09-02T16:19:44.172Z,18.13
2018-09-02T16:22:13.169Z,20.37
2018-09-02T16:24:42.508Z,25.80
2018-09-02T16:27:11.815Z,25.30
2018-09-02T16:29:41.342Z,19.77
2018-09-02T16:32:20.101Z,24.23
2018-09-02T16:34:49.877Z,23.37
2018-09-02T16:37:19.199Z,25.47
2018-09-02T16:39:48.631Z,26.60
2018-09-02T16:42:18.099Z,21.03
2018-09-02T16:44:47.318Z,25.47
2018-09-02T16:47:30.032Z,23.23
2018-09-02T16:49:59.377Z,23.23
2018-09-02T16:52:28.505Z,21.30
2018-09-02T16:54:57.645Z,27.07
2018-09-02T16:57:27.047Z,25.00
2018-09-02T16:59:56.450Z,25.40
2018-09-02T17:02:25.576Z,30.47
2018-09-02T17:04:59.091Z,28.23
2018-09-02T17:07:29.029Z,29.10
2018-09-02T17:10:14.680Z,25.83
2018-09-02T17:15:43.708Z,26.43
2018-09-02T17:18:13.085Z,31.07
2018-09-02T17:20:44.911Z,29.93
2018-09-02T17:23:14.894Z,28.73
2018-09-02T17:25:53.385Z,26.70
2018-09-02T17:28:22.708Z,29.90
2018-09-02T17:30:51.931Z,28.23
2018-09-02T17:33:25.443Z,26.40
2018-09-02T17:35:54.584Z,22.77
2018-09-02T17:38:23.969Z,25.60
2018-09-02T17:40:53.666Z,26.23
2018-09-02T17:43:23.277Z,23.97
2018-09-02T17:46:06.547Z,28.07
2018-09-02T17:48:35.919Z,26.63
2018-09-02T17:51:05.411Z,24.27
2018-09-02T17:53:34.804Z,26.67
2018-09-02T17:56:03.844Z,25.37
2018-09-02T17:58:33.206Z,28.37
2018-09-02T18:01:02.652Z,29.50
2018-09-02T18:03:31.841Z,25.57
2018-09-02T18:06:01.062Z,24.37
2018-09-02T18:08:30.505Z,27.40
2018-09-02T18:10:59.845Z,26.27
2018-09-02T18:13:29.133Z,30.47
2018-09-02T18:15:58.526Z,26.70
2018-09-02T18:18:27.659Z,31.37
2018-09-02T18:20:57.625Z,29.53
2018-09-02T18:23:27.091Z,28.70
2018-09-02T18:25:56.471Z,26.97
2018-09-02T18:28:28.768Z,29.10
2018-09-02T18:30:58.126Z,26.47
2018-09-02T18:33:27.463Z,29.70
2018-09-02T18:35:56.887Z,23.77
2018-09-02T18:38:26.451Z,26.03
2018-09-02T18:40:55.578Z,30.20
2018-09-02T18:43:24.940Z,25.83
2018-09-02T18:45:54.265Z,23.77
2018-09-02T18:48:23.349Z,27.07
2018-09-02T18:50:52.634Z,27.97
2018-09-02T18:53:21.949Z,25.93
2018-09-02T18:56:01.268Z,25.30
2018-09-02T18:58:30.661Z,25.53
2018-09-02T19:01:01.721Z,25.23
2018-09-02T19:03:30.780Z,27.80
2018-09-02T19:06:00.601Z,27.23
2018-09-02T19:08:29.952Z,28.03
2018-09-02T19:10:59.011Z,22.47
2018-09-02T19:13:28.386Z,27.63
2018-09-02T19:15:57.709Z,27.10
2018-09-02T19:18:27.009Z,26.37
2018-09-02T19:20:56.456Z,25.97
2018-09-02T19:23:25.606Z,25.57
2018-09-02T19:28:56.159Z,26.93
2018-09-02T19:34:39.142Z,25.50
2018-09-02T19:37:08.636Z,21.37
2018-09-02T19:39:38.013Z,21.70
2018-09-02T19:42:13.867Z,19.77
2018-09-02T19:44:43.161Z,21.07
2018-09-02T19:47:12.196Z,21.00
2018-09-02T19:49:41.768Z,22.33
2018-09-02T19:52:11.353Z,22.83
2018-09-02T19:54:40.531Z,20.73
2018-09-02T19:57:09.597Z,21.90
2018-09-02T19:59:38.928Z,20.33
2018-09-02T20:02:08.314Z,21.13
2018-09-02T20:04:37.774Z,20.57
2018-09-02T20:07:07.104Z,19.13
2018-09-02T20:09:36.208Z,21.27
2018-09-02T20:12:05.466Z,18.60
2018-09-02T20:14:34.808Z,22.33
2018-09-02T20:17:04.166Z,22.50
2018-09-02T20:19:33.986Z,20.20
2018-09-02T20:22:03.454Z,20.00
2018-09-02T20:24:32.535Z,21.17
2018-09-02T20:27:01.698Z,19.33
2018-09-02T20:29:30.792Z,19.70
2018-09-02T20:32:00.201Z,21.67
2018-09-02T20:34:29.525Z,21.83
2018-09-02T20:36:58.684Z,23.13
2018-09-02T20:39:27.756Z,19.43
2018-09-02T20:41:57.146Z,20.37
2018-09-02T20:44:26.203Z,20.77
2018-09-02T20:46:56.124Z,20.57
2018-09-02T20:49:25.462Z,20.07
2018-09-02T20:51:54.487Z,21.63
2018-09-02T20:54:23.829Z,21.77
2018-09-02T20:56:53.188Z,20.97
2018-09-02T20:59:22.525Z,20.40
2018-09-02T21:01:51.857Z,20.60
2018-09-02T21:04:21.223Z,20.67
2018-09-02T21:06:50.534Z,19.37
2018-09-02T21:09:19.712Z,20.10
2018-09-02T21:11:49.034Z,19.10
2018-09-02T21:14:18.393Z,20.20
2018-09-02T21:16:47.740Z,19.70
2018-09-02T21:19:16.810Z,17.90
2018-09-02T21:21:46.105Z,19.70
2018-09-02T21:24:15.204Z,17.83
2018-09-02T21:26:44.908Z,20.67
2018-09-02T21:29:14.200Z,18.50
2018-09-02T21:31:43.653Z,17.50
2018-09-02T21:34:13.224Z,17.33
2018-09-02T21:36:42.740Z,17.87
2018-09-02T21:39:11.744Z,17.30
2018-09-02T21:41:41.007Z,19.03
2018-09-02T21:44:10.087Z,15.73
2018-09-02T21:46:39.439Z,18.07
2018-09-02T21:49:08.770Z,19.37
2018-09-02T21:51:38.170Z,17.23
2018-09-02T21:54:07.598Z,18.27
2018-09-02T21:56:36.956Z,18.63
2018-09-02T21:59:06.269Z,15.83
2018-09-02T22:01:35.611Z,14.37
2018-09-02T22:04:04.914Z,16.00
2018-09-02T22:06:34.269Z,13.83
2018-09-02T22:09:09.690Z,13.97
2018-09-02T22:11:39.033Z,13.30
2018-09-02T22:14:08.175Z,13.77
2018-09-02T22:16:37.592Z,13.33
2018-09-02T22:19:06.801Z,12.00
2018-09-02T22:21:36.193Z,14.03
2018-09-02T22:24:05.663Z,13.00
2018-09-02T22:26:35.109Z,11.83
2018-09-02T22:29:04.740Z,18.77
2018-09-02T22:31:34.037Z,13.00
2018-09-02T22:34:03.381Z,12.03
2018-09-02T22:36:32.760Z,12.23
2018-09-02T22:39:02.053Z,13.10
2018-09-02T22:41:31.370Z,11.83
2018-09-02T22:44:00.731Z,11.63
2018-09-02T22:46:30.065Z,16.60
2018-09-02T22:48:59.418Z,10.47
2018-09-02T22:51:28.511Z,11.27
2018-09-02T22:53:57.907Z,11.57
2018-09-02T22:56:27.245Z,11.30
2018-09-02T22:58:56.281Z,10.97
2018-09-02T23:01:25.588Z,11.07
2018-09-02T23:03:55.005Z,11.33
2018-09-02T23:06:24.094Z,11.07
2018-09-02T23:08:53.381Z,11.67
2018-09-02T23:11:22.722Z,9.97
2018-09-02T23:13:52.040Z,10.70
2018-09-02T23:16:21.126Z,10.83
2018-09-02T23:18:50.176Z,10.27
2018-09-02T23:21:19.584Z,9.43
2018-09-02T23:23:48.829Z,10.03
2018-09-02T23:26:18.085Z,10.40
2018-09-02T23:28:47.558Z,11.23
2018-09-02T23:31:16.827Z,12.83
2018-09-02T23:33:45.835Z,11.13
2018-09-02T23:36:15.193Z,11.13
2018-09-02T23:38:44.977Z,10.93
2018-09-02T23:41:14.318Z,10.13
2018-09-02T23:43:43.726Z,11.07
2018-09-02T23:46:13.112Z,10.37
2018-09-02T23:48:42.413Z,10.47
2018-09-02T23:51:11.490Z,9.80
2018-09-02T23:56:37.808Z,9.20
2018-09-02T23:59:07.180Z,10.27
